North Conway, New Hampshire
Current Conditions -  °F | °C
As of 7:54 AM on Saturday 25 Oct 2014 (Local Time) from KIZG Reporting Station
Clear Clear  
Wind Chill: 38°   Ceiling: Unl
Heat Index: 38°   Visibility: 10mi
Dew Point: 37°   Wind: 0mph
Humidity: 97%   Direction: NA
Pressure: 29.7"   Gusts: NA
Location:  44.05°N, 71.13°W
Report Text: KIZG 251154Z AUTO 00000KT 10SM CLR 03/03 A2970 RMK AO2 SLP061 70003 T00330028 10072 20022 53004
Loading
Personal Weather Stations






























Interactive Weather Map New forecast layout! Learn more

10-Day Weather Forecast

Advertisements
Track Severe Weather on mobile